Impacts TAF Board
For situational awareness. Not to be used for flight planning purposes.
IDs:

KFLL - Ft Lauderdale-Hollyw, FL, US

Issued at 1720 UTC 20 Sep 2018
Updated at 2047 UTC 20 Sep 2018
Potential Impact None Slight Moderate High
Time1953Z 20/21Z 20/22Z 20/23Z 21/00Z 21/01Z 21/02Z 21/03Z 21/04Z 21/05Z 21/06Z 21/07Z 21/08Z 21/09Z>>
Type OBS PRVL PRVL PRVL PRVL PRVL PRVL PRVL PRVL PRVL PRVL PRVL PRVL PRVL
VIS 10 >6 >6 >6 >6 >6 >6 >6 >6 >6 >6 >6 >6 >6
CIG -- -- -- -- -- -- -- -- -- -- -- -- -- --
Cover SCT SCT SCT SCT SCT SCT SCT SCT SCT SCT SCT SCT SCT SCT
FltCat VFR VFR VFR VFR VFR VFR VFR VFR VFR VFR VFR VFR VFR VFR
WX -- VCTS VCTS -- -- -- -- -- -- -- -- -- -- --
WDir 60 100 100 90 90 90 90 VRB VRB VRB VRB VRB VRB VRB
WSpd 10 10 10 7 7 7 7 5 5 5 5 5 5 5
WGst 18 -- -- -- -- -- -- -- -- -- -- -- -- --
Raw TAF
KFLL 201720Z 2018/2124 10010KT P6SM SCT030 SCT050
  FM201900 10010KT P6SM VCTS SCT030CB SCT050
  FM202300 09007KT P6SM SCT030 SCT050
  FM210300 VRB05KT P6SM SCT040 SCT250
  FM211500 07008KT P6SM SCT030 SCT250
  FM211800 09008KT P6SM VCTS SCT030CB SCT250


Raw METAR
KFLL 201953Z 06010G18KT 10SM FEW032 FEW100 SCT150 SCT250 32/26 A2998 RMK AO2 LTG DSNT SW TSB17E33 SLP152 CB DSNT SW W MOV SW T03170256
KFLL 201948Z 10009G15KT 10SM FEW029 FEW100 SCT150 SCT250 32/25 A2999 RMK AO2 LTG DSNT SW TSB17E33 CB DSNT SW W MOV SW
KFLL 201939Z 08008KT 10SM VCTS FEW029 FEW100 SCT150 SCT250 32/25 A2999 RMK AO2 LTG DSNT SW AND NW TSB17E33 CB DSNT SW W MOV SW T03170250
KFLL 201923Z 09010KT 10SM TS FEW030CB FEW150 SCT250 32/26 A3001 RMK AO2 LTG DSNT SW-N TSB17 OCNL LTGICCA W-NW TS W-NW MOV SW CB DSNT SW T03170256
KFLL 201911Z 10013KT 10SM VCTS FEW035CB FEW150 SCT250 32/26 A2999 RMK AO2 LTG DSNT SW-N CB DSNT SW W-NW MOV SW T03170256
KFLL 201853Z COR 10011KT 10SM FEW035CB FEW150 FEW250 32/26 A2999 RMK AO2 LTG DSNT SW-N SLP155 CB N AND SW-W MOV W T03170256
KFLL 201840Z 09012KT 10SM FEW035CB FEW150 FEW250 32/26 A3000 RMK AO2 LTG DSNT N CB NW AND DSNT S MOV W T03220256
KFLL 201825Z 10011KT 10SM VCTS FEW035CB FEW150 FEW250 32/26 A3000 RMK AO2 LTG DSNT N CB NW AND DSNT S MOV W T03170256
KFLL 201753Z 11011KT 10SM FEW030 FEW250 32/26 A3002 RMK AO2 LTG DSNT SW SLP165 T03170256 10328 20272 58012

METAR Board
Radar Display
Forecast Discussion
For situational awareness. Not to be used for flight planning purposes.